createdAt,value
2022-12-23T00:00:16.435Z,30.339
2022-12-23T00:05:16.825Z,30.334
2022-12-23T00:10:16.274Z,30.324
2022-12-23T00:15:16.549Z,30.315
2022-12-23T00:20:16.467Z,30.307
2022-12-23T00:25:16.328Z,30.305
2022-12-23T00:30:16.449Z,30.305
2022-12-23T00:35:16.385Z,30.298
2022-12-23T00:40:16.596Z,30.293
2022-12-23T00:45:16.404Z,30.292
2022-12-23T00:50:16.417Z,30.285
2022-12-23T00:55:16.387Z,30.284
2022-12-23T01:00:16.462Z,30.281
2022-12-23T01:05:16.507Z,30.282
2022-12-23T01:10:16.465Z,30.282
2022-12-23T01:15:16.453Z,30.273
2022-12-23T01:20:16.431Z,30.268
2022-12-23T01:25:16.508Z,30.267
2022-12-23T01:30:16.510Z,30.262
2022-12-23T01:35:16.651Z,30.252
2022-12-23T01:40:16.572Z,30.246
2022-12-23T01:45:16.553Z,30.245
2022-12-23T01:50:16.854Z,30.240
2022-12-23T01:55:16.538Z,30.239
2022-12-23T02:00:16.596Z,30.238
2022-12-23T02:05:16.596Z,30.240
2022-12-23T02:10:16.503Z,30.235
2022-12-23T02:15:16.570Z,30.233
2022-12-23T02:20:16.669Z,30.225
2022-12-23T02:25:16.662Z,30.223
2022-12-23T02:30:16.643Z,30.232
2022-12-23T02:35:16.692Z,30.236
2022-12-23T02:40:16.638Z,30.239
2022-12-23T02:45:16.760Z,30.241
2022-12-23T02:50:16.688Z,30.236
2022-12-23T02:55:16.774Z,30.230
2022-12-23T03:00:16.863Z,30.220
2022-12-23T03:05:16.727Z,30.217
2022-12-23T03:10:16.913Z,30.212
2022-12-23T03:15:16.692Z,30.210
2022-12-23T03:20:16.703Z,30.203
2022-12-23T03:25:16.796Z,30.206
2022-12-23T03:30:17.011Z,30.203
2022-12-23T03:35:16.935Z,30.203
2022-12-23T03:40:16.942Z,30.186
2022-12-23T03:45:38.288Z,30.177
2022-12-23T03:50:16.794Z,30.172
2022-12-23T03:55:16.692Z,30.170
2022-12-23T04:00:16.777Z,30.164
2022-12-23T04:05:16.845Z,30.155
2022-12-23T04:10:16.911Z,30.155
2022-12-23T04:15:16.792Z,30.142
2022-12-23T04:20:16.783Z,30.137
2022-12-23T04:25:16.900Z,30.125
2022-12-23T04:30:16.876Z,30.116
2022-12-23T04:35:16.881Z,30.111
2022-12-23T04:40:16.919Z,30.103
2022-12-23T04:45:16.909Z,30.091
2022-12-23T04:50:16.980Z,30.083
2022-12-23T04:55:17.008Z,30.065
2022-12-23T05:00:15.921Z,30.057
2022-12-23T05:05:16.098Z,30.052
2022-12-23T05:10:15.977Z,30.049
2022-12-23T05:15:15.976Z,30.043
2022-12-23T05:20:16.004Z,30.034
2022-12-23T05:25:16.070Z,30.029
2022-12-23T05:30:16.095Z,30.022
2022-12-23T05:35:16.107Z,30.022
2022-12-23T05:40:21.546Z,30.014
2022-12-23T05:45:16.103Z,30.001
2022-12-23T05:50:16.106Z,29.997
2022-12-23T05:55:16.170Z,29.995
2022-12-23T06:00:16.089Z,29.982
2022-12-23T06:05:16.072Z,29.974
2022-12-23T06:10:16.079Z,29.957
2022-12-23T06:15:16.193Z,29.951
2022-12-23T06:20:20.324Z,29.939
2022-12-23T06:25:16.329Z,29.936
2022-12-23T06:30:16.233Z,29.935
2022-12-23T06:35:16.131Z,29.937
2022-12-23T06:40:16.283Z,29.927
2022-12-23T06:45:16.318Z,29.927
2022-12-23T06:50:16.136Z,29.919
2022-12-23T06:55:16.257Z,29.919
2022-12-23T07:00:16.398Z,29.913
2022-12-23T07:05:16.236Z,29.907
2022-12-23T07:10:16.526Z,29.892
2022-12-23T07:15:16.324Z,29.889
2022-12-23T07:20:16.295Z,29.890
2022-12-23T07:25:16.281Z,29.888
2022-12-23T07:30:16.269Z,29.880
2022-12-23T07:35:16.430Z,29.873
2022-12-23T07:40:16.398Z,29.865
2022-12-23T07:45:16.397Z,29.860
2022-12-23T07:50:16.372Z,29.854
2022-12-23T07:55:16.248Z,29.850
2022-12-23T08:00:16.456Z,29.838
2022-12-23T08:05:16.465Z,29.826
2022-12-23T08:10:16.360Z,29.823
2022-12-23T08:15:16.380Z,29.812
2022-12-23T08:20:16.270Z,29.805
2022-12-23T08:25:16.303Z,29.794
2022-12-23T08:30:16.321Z,29.790
2022-12-23T08:35:16.466Z,29.784
2022-12-23T08:40:16.368Z,29.774
2022-12-23T08:45:16.457Z,29.776
2022-12-23T08:50:16.410Z,29.767
2022-12-23T08:55:16.585Z,29.751
2022-12-23T09:00:16.443Z,29.740
2022-12-23T09:05:16.505Z,29.739
2022-12-23T09:10:16.424Z,29.737
2022-12-23T09:15:16.466Z,29.724
2022-12-23T09:20:16.739Z,29.718
2022-12-23T09:25:16.578Z,29.724
2022-12-23T09:30:16.602Z,29.719
2022-12-23T09:35:16.642Z,29.708
2022-12-23T09:40:16.503Z,29.706
2022-12-23T09:45:16.705Z,29.700
2022-12-23T09:50:16.630Z,29.692
2022-12-23T09:55:16.460Z,29.697
2022-12-23T10:00:16.751Z,29.683
2022-12-23T10:05:16.569Z,29.675
2022-12-23T10:10:16.612Z,29.669
2022-12-23T10:15:16.690Z,29.665
2022-12-23T10:20:16.633Z,29.659
2022-12-23T10:25:16.649Z,29.656
2022-12-23T10:30:42.606Z,29.649
2022-12-23T10:35:16.680Z,29.648
2022-12-23T10:40:16.606Z,29.642
2022-12-23T10:45:16.636Z,29.643
2022-12-23T10:50:16.799Z,29.622
2022-12-23T10:55:16.726Z,29.616
2022-12-23T11:00:16.923Z,29.616
2022-12-23T11:05:16.678Z,29.611
2022-12-23T11:10:16.962Z,29.602
2022-12-23T11:15:16.879Z,29.590
2022-12-23T11:20:16.744Z,29.591
2022-12-23T11:25:16.889Z,29.588
2022-12-23T11:30:16.802Z,29.585
2022-12-23T11:35:16.727Z,29.585
2022-12-23T11:40:16.952Z,29.573
2022-12-23T11:45:16.805Z,29.554
2022-12-23T11:50:16.761Z,29.547
2022-12-23T11:55:16.866Z,29.520
2022-12-23T12:00:16.997Z,29.513
2022-12-23T12:05:16.887Z,29.519
2022-12-23T12:10:16.826Z,29.514
2022-12-23T12:15:16.873Z,29.506
2022-12-23T12:20:17.074Z,29.505
2022-12-23T12:25:16.888Z,29.479
2022-12-23T12:30:16.905Z,29.478
2022-12-23T12:35:17.023Z,29.524
2022-12-23T12:40:16.976Z,29.538
2022-12-23T12:45:17.100Z,29.533
2022-12-23T12:50:16.961Z,29.521
2022-12-23T12:55:16.907Z,29.503
2022-12-23T13:00:16.958Z,29.516
2022-12-23T13:05:17.018Z,29.499
2022-12-23T13:10:16.978Z,29.496
2022-12-23T13:15:17.088Z,29.498
2022-12-23T13:20:16.979Z,29.480
2022-12-23T13:25:17.168Z,29.474
2022-12-23T13:30:17.025Z,29.469
2022-12-23T13:35:17.050Z,29.447
2022-12-23T13:40:17.050Z,29.441
2022-12-23T13:45:17.087Z,29.439
2022-12-23T13:50:17.437Z,29.438
2022-12-23T13:55:17.035Z,29.429
2022-12-23T14:00:17.153Z,29.441
2022-12-23T14:05:17.058Z,29.435
2022-12-23T14:10:17.088Z,29.421
2022-12-23T14:15:17.164Z,29.411
2022-12-23T14:20:17.224Z,29.406
2022-12-23T14:25:17.231Z,29.404
2022-12-23T14:30:17.249Z,29.393
2022-12-23T14:35:17.089Z,29.396
2022-12-23T14:40:17.122Z,29.385
2022-12-23T14:45:17.325Z,29.379
2022-12-23T14:50:17.323Z,29.379
2022-12-23T14:55:32.869Z,29.371
2022-12-23T15:00:17.411Z,29.373
2022-12-23T15:05:17.226Z,29.371
2022-12-23T15:10:17.369Z,29.360
2022-12-23T15:15:17.333Z,29.354
2022-12-23T15:20:17.311Z,29.350
2022-12-23T15:25:17.267Z,29.334
2022-12-23T15:30:17.344Z,29.328
2022-12-23T15:35:17.348Z,29.327
2022-12-23T15:40:17.282Z,29.322
2022-12-23T15:45:17.334Z,29.321
2022-12-23T15:50:17.430Z,29.310
2022-12-23T15:55:17.462Z,29.310
2022-12-23T16:00:17.489Z,29.305
2022-12-23T16:05:17.393Z,29.290
2022-12-23T16:10:17.339Z,29.293
2022-12-23T16:15:17.470Z,29.282
2022-12-23T16:20:17.414Z,29.276
2022-12-23T16:25:17.425Z,29.258
2022-12-23T16:30:15.401Z,29.241
2022-12-23T16:35:15.490Z,29.242
2022-12-23T16:40:15.429Z,29.243
2022-12-23T16:45:15.490Z,29.241
2022-12-23T16:50:15.461Z,29.233
2022-12-23T16:55:15.447Z,29.224
2022-12-23T17:00:15.568Z,29.212
2022-12-23T17:05:15.534Z,29.204
2022-12-23T17:10:15.406Z,29.197
2022-12-23T17:15:15.516Z,29.194
2022-12-23T17:20:15.487Z,29.187
2022-12-23T17:25:15.514Z,29.189
2022-12-23T17:30:15.560Z,29.179
2022-12-23T17:35:15.568Z,29.180
2022-12-23T17:40:15.486Z,29.174
2022-12-23T17:45:15.578Z,29.160
2022-12-23T17:50:15.510Z,29.162
2022-12-23T17:55:15.485Z,29.154
2022-12-23T18:00:22.531Z,29.128
2022-12-23T18:05:15.562Z,29.122
2022-12-23T18:10:15.664Z,29.117
2022-12-23T18:15:15.645Z,29.111
2022-12-23T18:20:15.774Z,29.104
2022-12-23T18:25:15.657Z,29.092
2022-12-23T18:30:15.846Z,29.087
2022-12-23T18:35:15.613Z,29.083
2022-12-23T18:40:15.634Z,29.070
2022-12-23T18:45:15.695Z,29.072
2022-12-23T18:50:15.642Z,29.058
2022-12-23T18:55:15.943Z,29.054
2022-12-23T19:00:15.794Z,29.046
2022-12-23T19:05:15.685Z,29.044
2022-12-23T19:10:15.841Z,29.039
2022-12-23T19:15:15.846Z,29.032
2022-12-23T19:20:15.779Z,29.025
2022-12-23T19:25:15.864Z,29.021
2022-12-23T19:30:15.895Z,29.062
2022-12-23T19:35:15.883Z,29.071
2022-12-23T19:40:15.825Z,29.067
2022-12-23T19:45:15.885Z,29.066
2022-12-23T19:50:16.118Z,29.057
2022-12-23T19:55:15.794Z,29.052
2022-12-23T20:00:15.819Z,29.047
2022-12-23T20:05:16.071Z,29.039
2022-12-23T20:10:15.861Z,29.038
2022-12-23T20:15:15.923Z,29.026
2022-12-23T20:20:15.908Z,29.024
2022-12-23T20:25:15.938Z,29.015
2022-12-23T20:30:15.867Z,29.020
2022-12-23T20:35:15.922Z,29.014
2022-12-23T20:40:15.954Z,29.012
2022-12-23T20:45:15.931Z,29.006
2022-12-23T20:50:15.923Z,28.992
2022-12-23T20:55:15.928Z,28.985
2022-12-23T21:00:16.019Z,28.987
2022-12-23T21:05:15.914Z,28.986
2022-12-23T21:10:15.974Z,28.990
2022-12-23T21:15:16.012Z,28.987
2022-12-23T21:20:16.030Z,28.981
2022-12-23T21:25:16.016Z,28.990
2022-12-23T21:30:16.104Z,28.988
2022-12-23T21:35:16.085Z,28.978
2022-12-23T21:40:16.122Z,28.978
2022-12-23T21:45:16.062Z,28.976
2022-12-23T21:50:16.189Z,28.975
2022-12-23T21:55:16.020Z,28.966
2022-12-23T22:00:16.060Z,28.958
2022-12-23T22:05:16.058Z,28.962
2022-12-23T22:10:16.016Z,28.978
2022-12-23T22:15:16.189Z,28.987
2022-12-23T22:20:16.154Z,28.989
2022-12-23T22:25:16.234Z,28.986
2022-12-23T22:30:16.259Z,28.983
2022-12-23T22:35:16.141Z,28.983
2022-12-23T22:40:16.272Z,28.997
2022-12-23T22:45:16.139Z,29.002
2022-12-23T22:50:16.261Z,29.005
2022-12-23T22:55:16.211Z,29.005
2022-12-23T23:00:16.229Z,29.010
2022-12-23T23:05:16.332Z,29.003
2022-12-23T23:10:16.107Z,29.000
2022-12-23T23:15:16.322Z,29.008
2022-12-23T23:20:16.324Z,29.013
2022-12-23T23:25:16.490Z,29.019
2022-12-23T23:30:16.210Z,29.034
2022-12-23T23:35:16.379Z,29.041
2022-12-23T23:40:16.365Z,29.034
2022-12-23T23:45:16.267Z,29.032
2022-12-23T23:50:16.350Z,29.041
2022-12-23T23:55:16.201Z,29.045
